sensor_id;sensor_type;location;lat;lon;timestamp;temperature;humidity
72576;DHT22;60613;48.658;2.328;2023-01-15T07:02:41;19.90;41.90
72576;DHT22;60613;48.658;2.328;2023-01-15T07:05:07;19.90;42.80
72576;DHT22;60613;48.658;2.328;2023-01-15T07:07:33;19.90;42.50
72576;DHT22;60613;48.658;2.328;2023-01-15T07:09:59;20.00;42.50
72576;DHT22;60613;48.658;2.328;2023-01-15T07:12:25;20.10;42.50
72576;DHT22;60613;48.658;2.328;2023-01-15T07:14:51;20.20;42.60
72576;DHT22;60613;48.658;2.328;2023-01-15T07:17:17;20.30;42.10
72576;DHT22;60613;48.658;2.328;2023-01-15T07:19:43;20.40;42.10
72576;DHT22;60613;48.658;2.328;2023-01-15T07:22:09;20.50;42.20
72576;DHT22;60613;48.658;2.328;2023-01-15T07:24:35;20.50;42.10
72576;DHT22;60613;48.658;2.328;2023-01-15T07:27:01;20.50;40.20
72576;DHT22;60613;48.658;2.328;2023-01-15T07:29:27;19.90;38.20
72576;DHT22;60613;48.658;2.328;2023-01-15T07:31:52;19.60;39.50
72576;DHT22;60613;48.658;2.328;2023-01-15T07:34:18;19.50;38.60
72576;DHT22;60613;48.658;2.328;2023-01-15T07:36:44;19.30;37.50
72576;DHT22;60613;48.658;2.328;2023-01-15T07:39:10;19.10;37.70
72576;DHT22;60613;48.658;2.328;2023-01-15T07:41:36;18.90;38.20
72576;DHT22;60613;48.658;2.328;2023-01-15T07:44:21;18.70;38.80
72576;DHT22;60613;48.658;2.328;2023-01-15T07:47:25;18.60;41.00
72576;DHT22;60613;48.658;2.328;2023-01-15T07:50:13;18.90;43.70
72576;DHT22;60613;48.658;2.328;2023-01-15T07:52:38;19.20;43.40
72576;DHT22;60613;48.658;2.328;2023-01-15T07:55:04;19.40;43.50
72576;DHT22;60613;48.658;2.328;2023-01-15T07:57:32;19.60;43.20
72576;DHT22;60613;48.658;2.328;2023-01-15T07:59:58;19.70;42.70
72576;DHT22;60613;48.658;2.328;2023-01-15T08:02:24;19.90;43.10
72576;DHT22;60613;48.658;2.328;2023-01-15T08:04:50;20.00;43.20
72576;DHT22;60613;48.658;2.328;2023-01-15T08:07:15;20.10;43.50
72576;DHT22;60613;48.658;2.328;2023-01-15T08:09:41;20.10;43.30
72576;DHT22;60613;48.658;2.328;2023-01-15T08:12:07;20.20;42.90
72576;DHT22;60613;48.658;2.328;2023-01-15T08:14:52;20.20;42.90
72576;DHT22;60613;48.658;2.328;2023-01-15T08:17:38;20.20;42.20
72576;DHT22;60613;48.658;2.328;2023-01-15T08:20:05;20.30;41.90
72576;DHT22;60613;48.658;2.328;2023-01-15T08:22:33;20.30;41.50
72576;DHT22;60613;48.658;2.328;2023-01-15T08:24:59;20.40;41.40
72576;DHT22;60613;48.658;2.328;2023-01-15T08:27:25;20.40;41.50
72576;DHT22;60613;48.658;2.328;2023-01-15T08:29:51;20.50;42.00
72576;DHT22;60613;48.658;2.328;2023-01-15T08:32:17;20.50;41.70
72576;DHT22;60613;48.658;2.328;2023-01-15T08:34:43;20.60;42.20
72576;DHT22;60613;48.658;2.328;2023-01-15T08:37:09;20.60;42.30
72576;DHT22;60613;48.658;2.328;2023-01-15T08:39:34;20.70;43.10
72576;DHT22;60613;48.658;2.328;2023-01-15T08:42:00;20.70;43.30
72576;DHT22;60613;48.658;2.328;2023-01-15T08:44:25;20.80;43.80
72576;DHT22;60613;48.658;2.328;2023-01-15T08:46:52;20.80;43.30
72576;DHT22;60613;48.658;2.328;2023-01-15T08:49:19;20.90;43.90
72576;DHT22;60613;48.658;2.328;2023-01-15T08:51:45;20.90;45.10
72576;DHT22;60613;48.658;2.328;2023-01-15T08:54:14;20.90;45.00
72576;DHT22;60613;48.658;2.328;2023-01-15T08:56:40;21.00;45.10
72576;DHT22;60613;48.658;2.328;2023-01-15T08:59:06;21.00;44.60
72576;DHT22;60613;48.658;2.328;2023-01-15T09:01:35;21.00;44.60
72576;DHT22;60613;48.658;2.328;2023-01-15T09:04:01;21.00;44.70
72576;DHT22;60613;48.658;2.328;2023-01-15T09:06:27;21.00;45.10
72576;DHT22;60613;48.658;2.328;2023-01-15T09:08:53;21.00;43.80
72576;DHT22;60613;48.658;2.328;2023-01-15T09:11:19;21.00;43.90
72576;DHT22;60613;48.658;2.328;2023-01-15T09:13:44;21.00;43.50
72576;DHT22;60613;48.658;2.328;2023-01-15T09:16:14;21.00;43.90
72576;DHT22;60613;48.658;2.328;2023-01-15T09:18:41;21.00;43.80
72576;DHT22;60613;48.658;2.328;2023-01-15T09:21:07;21.00;43.10
72576;DHT22;60613;48.658;2.328;2023-01-15T09:23:33;21.10;43.10
72576;DHT22;60613;48.658;2.328;2023-01-15T09:26:01;21.00;43.20
72576;DHT22;60613;48.658;2.328;2023-01-15T09:28:30;21.00;42.80
72576;DHT22;60613;48.658;2.328;2023-01-15T09:30:55;21.00;42.50
72576;DHT22;60613;48.658;2.328;2023-01-15T09:33:21;20.90;42.70
72576;DHT22;60613;48.658;2.328;2023-01-15T09:35:47;20.80;42.50
72576;DHT22;60613;48.658;2.328;2023-01-15T09:38:15;20.80;42.80
72576;DHT22;60613;48.658;2.328;2023-01-15T09:40:53;20.80;42.30
72576;DHT22;60613;48.658;2.328;2023-01-15T09:46:03;20.80;42.70
72576;DHT22;60613;48.658;2.328;2023-01-15T09:48:45;20.80;42.10
72576;DHT22;60613;48.658;2.328;2023-01-15T09:56:36;20.90;41.50
72576;DHT22;60613;48.658;2.328;2023-01-15T09:59:19;21.00;41.40
72576;DHT22;60613;48.658;2.328;2023-01-15T10:01:46;21.00;41.40
72576;DHT22;60613;48.658;2.328;2023-01-15T10:06:50;21.00;41.30
72576;DHT22;60613;48.658;2.328;2023-01-15T10:09:23;21.00;41.00
72576;DHT22;60613;48.658;2.328;2023-01-15T10:11:58;21.00;41.00
72576;DHT22;60613;48.658;2.328;2023-01-15T10:14:53;21.00;40.60
72576;DHT22;60613;48.658;2.328;2023-01-15T10:17:28;21.00;40.50
72576;DHT22;60613;48.658;2.328;2023-01-15T10:19:59;20.90;40.50
72576;DHT22;60613;48.658;2.328;2023-01-15T10:22:43;20.90;40.20
72576;DHT22;60613;48.658;2.328;2023-01-15T10:25:17;21.00;40.30
72576;DHT22;60613;48.658;2.328;2023-01-15T10:27:50;21.00;40.30
72576;DHT22;60613;48.658;2.328;2023-01-15T10:30:25;21.00;40.20
72576;DHT22;60613;48.658;2.328;2023-01-15T10:32:55;21.00;39.90
72576;DHT22;60613;48.658;2.328;2023-01-15T10:41:05;21.00;39.80
72576;DHT22;60613;48.658;2.328;2023-01-15T10:43:54;21.00;39.90
72576;DHT22;60613;48.658;2.328;2023-01-15T10:46:26;21.00;39.80
72576;DHT22;60613;48.658;2.328;2023-01-15T10:49:01;21.00;39.80
72576;DHT22;60613;48.658;2.328;2023-01-15T10:54:12;21.00;39.60
72576;DHT22;60613;48.658;2.328;2023-01-15T10:57:02;21.10;39.50
72576;DHT22;60613;48.658;2.328;2023-01-15T11:02:41;21.10;39.50
72576;DHT22;60613;48.658;2.328;2023-01-15T11:05:14;21.10;39.50
72576;DHT22;60613;48.658;2.328;2023-01-15T11:07:43;21.00;39.80
72576;DHT22;60613;48.658;2.328;2023-01-15T11:10:12;21.00;39.80
72576;DHT22;60613;48.658;2.328;2023-01-15T11:12:44;21.00;39.50
72576;DHT22;60613;48.658;2.328;2023-01-15T11:15:31;21.00;39.20
72576;DHT22;60613;48.658;2.328;2023-01-15T11:18:37;21.10;39.10
72576;DHT22;60613;48.658;2.328;2023-01-15T11:21:23;21.00;39.00
72576;DHT22;60613;48.658;2.328;2023-01-15T11:23:51;21.00;39.00
72576;DHT22;60613;48.658;2.328;2023-01-15T11:26:24;21.00;38.60
72576;DHT22;60613;48.658;2.328;2023-01-15T11:28:50;21.10;38.40
72576;DHT22;60613;48.658;2.328;2023-01-15T11:31:16;21.10;38.50
72576;DHT22;60613;48.658;2.328;2023-01-15T11:34:03;21.10;38.80
72576;DHT22;60613;48.658;2.328;2023-01-15T11:36:30;21.10;38.40
72576;DHT22;60613;48.658;2.328;2023-01-15T11:38:56;21.10;38.90
72576;DHT22;60613;48.658;2.328;2023-01-15T11:44:11;21.10;38.80
72576;DHT22;60613;48.658;2.328;2023-01-15T11:46:56;21.10;38.20
72576;DHT22;60613;48.658;2.328;2023-01-15T11:49:49;21.10;38.20
72576;DHT22;60613;48.658;2.328;2023-01-15T11:52:43;21.10;38.40
72576;DHT22;60613;48.658;2.328;2023-01-15T11:55:17;21.10;38.60
72576;DHT22;60613;48.658;2.328;2023-01-15T11:57:44;21.10;38.80
72576;DHT22;60613;48.658;2.328;2023-01-15T12:00:25;21.10;38.60
72576;DHT22;60613;48.658;2.328;2023-01-15T12:02:54;21.10;38.60
72576;DHT22;60613;48.658;2.328;2023-01-15T12:05:27;21.10;38.60
72576;DHT22;60613;48.658;2.328;2023-01-15T12:08:00;21.10;38.60
72576;DHT22;60613;48.658;2.328;2023-01-15T12:10:43;21.10;38.60
72576;DHT22;60613;48.658;2.328;2023-01-15T12:17:11;21.20;38.80
72576;DHT22;60613;48.658;2.328;2023-01-15T12:35:39;21.30;38.50
72576;DHT22;60613;48.658;2.328;2023-01-15T12:38:23;21.30;38.80
72576;DHT22;60613;48.658;2.328;2023-01-15T12:40:58;21.30;38.60
72576;DHT22;60613;48.658;2.328;2023-01-15T12:43:27;21.30;38.50
72576;DHT22;60613;48.658;2.328;2023-01-15T12:46:18;21.30;38.70
72576;DHT22;60613;48.658;2.328;2023-01-15T12:51:30;21.30;38.50
72576;DHT22;60613;48.658;2.328;2023-01-15T12:54:02;21.30;38.70
72576;DHT22;60613;48.658;2.328;2023-01-15T12:56:57;21.30;39.00
72576;DHT22;60613;48.658;2.328;2023-01-15T12:59:33;21.20;38.60
72576;DHT22;60613;48.658;2.328;2023-01-15T13:07:24;21.30;38.40
72576;DHT22;60613;48.658;2.328;2023-01-15T13:10:39;21.30;38.50
72576;DHT22;60613;48.658;2.328;2023-01-15T13:13:22;21.30;38.30
72576;DHT22;60613;48.658;2.328;2023-01-15T13:16:12;21.30;38.30
72576;DHT22;60613;48.658;2.328;2023-01-15T13:18:48;21.30;38.30
72576;DHT22;60613;48.658;2.328;2023-01-15T13:21:18;21.40;38.30
72576;DHT22;60613;48.658;2.328;2023-01-15T13:26:58;21.50;38.30
72576;DHT22;60613;48.658;2.328;2023-01-15T13:32:38;21.50;38.10
72576;DHT22;60613;48.658;2.328;2023-01-15T13:37:47;21.50;37.90
72576;DHT22;60613;48.658;2.328;2023-01-15T13:40:26;21.50;38.10
72576;DHT22;60613;48.658;2.328;2023-01-15T13:42:53;21.50;38.00
72576;DHT22;60613;48.658;2.328;2023-01-15T13:45:35;21.50;38.10
72576;DHT22;60613;48.658;2.328;2023-01-15T13:48:06;21.50;38.10
72576;DHT22;60613;48.658;2.328;2023-01-15T13:50:41;21.50;38.10
72576;DHT22;60613;48.658;2.328;2023-01-15T13:53:15;21.50;37.90
72576;DHT22;60613;48.658;2.328;2023-01-15T13:55:54;21.50;37.90
72576;DHT22;60613;48.658;2.328;2023-01-15T13:58:25;21.50;37.90
72576;DHT22;60613;48.658;2.328;2023-01-15T14:09:07;21.50;37.80
72576;DHT22;60613;48.658;2.328;2023-01-15T14:11:37;21.50;38.90
72576;DHT22;60613;48.658;2.328;2023-01-15T14:27:53;21.50;37.50
72576;DHT22;60613;48.658;2.328;2023-01-15T14:36:09;21.50;37.40
72576;DHT22;60613;48.658;2.328;2023-01-15T14:38:49;21.60;37.40
72576;DHT22;60613;48.658;2.328;2023-01-15T14:41:30;21.60;37.50
72576;DHT22;60613;48.658;2.328;2023-01-15T14:43:59;21.60;37.50
72576;DHT22;60613;48.658;2.328;2023-01-15T14:46:31;21.60;37.50
72576;DHT22;60613;48.658;2.328;2023-01-15T14:49:02;21.60;37.50
72576;DHT22;60613;48.658;2.328;2023-01-15T14:51:31;21.60;37.40
72576;DHT22;60613;48.658;2.328;2023-01-15T14:54:08;21.60;37.40
72576;DHT22;60613;48.658;2.328;2023-01-15T14:56:39;21.70;37.50
72576;DHT22;60613;48.658;2.328;2023-01-15T15:01:51;21.70;37.30
72576;DHT22;60613;48.658;2.328;2023-01-15T15:07:00;21.70;37.50
72576;DHT22;60613;48.658;2.328;2023-01-15T15:09:32;21.70;37.30
72576;DHT22;60613;48.658;2.328;2023-01-15T15:14:57;21.70;37.20
72576;DHT22;60613;48.658;2.328;2023-01-15T15:23:27;21.80;37.30
72576;DHT22;60613;48.658;2.328;2023-01-15T15:26:02;21.80;37.30
72576;DHT22;60613;48.658;2.328;2023-01-15T15:28:28;21.70;37.30
72576;DHT22;60613;48.658;2.328;2023-01-15T15:30:56;21.80;37.20
72576;DHT22;60613;48.658;2.328;2023-01-15T15:33:28;21.80;37.40
72576;DHT22;60613;48.658;2.328;2023-01-15T15:35:58;21.80;37.40
72576;DHT22;60613;48.658;2.328;2023-01-15T15:38:25;21.80;37.20
72576;DHT22;60613;48.658;2.328;2023-01-15T15:41:00;21.80;37.40
72576;DHT22;60613;48.658;2.328;2023-01-15T15:46:26;21.90;37.60
72576;DHT22;60613;48.658;2.328;2023-01-15T15:49:11;21.80;37.50
72576;DHT22;60613;48.658;2.328;2023-01-15T15:51:48;21.80;37.60
72576;DHT22;60613;48.658;2.328;2023-01-15T15:54:21;21.80;37.60
72576;DHT22;60613;48.658;2.328;2023-01-15T15:59:31;21.90;37.60
72576;DHT22;60613;48.658;2.328;2023-01-15T16:02:06;21.90;37.60
72576;DHT22;60613;48.658;2.328;2023-01-15T16:04:33;22.00;37.60
72576;DHT22;60613;48.658;2.328;2023-01-15T16:06:58;22.00;37.40
72576;DHT22;60613;48.658;2.328;2023-01-15T16:09:24;22.00;37.30
72576;DHT22;60613;48.658;2.328;2023-01-15T16:11:51;22.10;37.30
72576;DHT22;60613;48.658;2.328;2023-01-15T16:14:17;22.10;38.50
72576;DHT22;60613;48.658;2.328;2023-01-15T16:16:45;22.10;37.30
72576;DHT22;60613;48.658;2.328;2023-01-15T16:19:19;22.10;37.20
72576;DHT22;60613;48.658;2.328;2023-01-15T16:21:46;22.10;37.30
72576;DHT22;60613;48.658;2.328;2023-01-15T16:24:23;22.10;37.20
72576;DHT22;60613;48.658;2.328;2023-01-15T16:27:05;22.20;37.20
72576;DHT22;60613;48.658;2.328;2023-01-15T16:29:33;22.10;37.20
72576;DHT22;60613;48.658;2.328;2023-01-15T16:32:01;22.20;37.20
72576;DHT22;60613;48.658;2.328;2023-01-15T16:34:33;22.10;38.30
72576;DHT22;60613;48.658;2.328;2023-01-15T16:37:00;22.20;37.10
72576;DHT22;60613;48.658;2.328;2023-01-15T16:39:30;22.20;37.10
72576;DHT22;60613;48.658;2.328;2023-01-15T16:41:58;22.20;38.30
72576;DHT22;60613;48.658;2.328;2023-01-15T16:44:40;22.20;37.10
72576;DHT22;60613;48.658;2.328;2023-01-15T16:47:23;22.20;37.10
72576;DHT22;60613;48.658;2.328;2023-01-15T16:49:49;22.20;37.20
72576;DHT22;60613;48.658;2.328;2023-01-15T16:52:35;22.20;37.10
72576;DHT22;60613;48.658;2.328;2023-01-15T16:58:20;22.20;37.00
72576;DHT22;60613;48.658;2.328;2023-01-15T17:00:49;22.30;37.00
72576;DHT22;60613;48.658;2.328;2023-01-15T17:03:21;22.30;37.10
72576;DHT22;60613;48.658;2.328;2023-01-15T17:05:49;22.30;37.00
72576;DHT22;60613;48.658;2.328;2023-01-15T17:08:26;22.30;37.00
72576;DHT22;60613;48.658;2.328;2023-01-15T17:10:58;22.20;37.00
72576;DHT22;60613;48.658;2.328;2023-01-15T17:13:34;22.30;37.00
72576;DHT22;60613;48.658;2.328;2023-01-15T17:18:31;22.30;36.90
72576;DHT22;60613;48.658;2.328;2023-01-15T17:20:58;22.30;36.80
72576;DHT22;60613;48.658;2.328;2023-01-15T17:23:27;22.30;36.80
72576;DHT22;60613;48.658;2.328;2023-01-15T17:25:54;22.30;36.90
72576;DHT22;60613;48.658;2.328;2023-01-15T17:28:19;22.30;36.90
72576;DHT22;60613;48.658;2.328;2023-01-15T17:30:49;22.30;36.90
72576;DHT22;60613;48.658;2.328;2023-01-15T17:33:17;22.30;36.80
72576;DHT22;60613;48.658;2.328;2023-01-15T17:35:43;22.30;36.80
72576;DHT22;60613;48.658;2.328;2023-01-15T17:38:13;22.30;36.90
72576;DHT22;60613;48.658;2.328;2023-01-15T17:40:39;22.30;36.80
72576;DHT22;60613;48.658;2.328;2023-01-15T17:43:05;22.40;36.80
72576;DHT22;60613;48.658;2.328;2023-01-15T17:45:32;22.40;36.70
72576;DHT22;60613;48.658;2.328;2023-01-15T17:47:58;22.40;36.60
72576;DHT22;60613;48.658;2.328;2023-01-15T17:50:24;22.40;36.60
72576;DHT22;60613;48.658;2.328;2023-01-15T17:52:50;22.40;36.60
72576;DHT22;60613;48.658;2.328;2023-01-15T17:55:21;22.40;36.80
72576;DHT22;60613;48.658;2.328;2023-01-15T17:58:09;22.40;36.70
72576;DHT22;60613;48.658;2.328;2023-01-15T18:00:53;22.40;36.70
72576;DHT22;60613;48.658;2.328;2023-01-15T18:03:44;22.40;36.60
72576;DHT22;60613;48.658;2.328;2023-01-15T18:06:29;22.40;36.50
72576;DHT22;60613;48.658;2.328;2023-01-15T18:08:56;22.40;36.50
72576;DHT22;60613;48.658;2.328;2023-01-15T18:11:23;22.40;36.60
72576;DHT22;60613;48.658;2.328;2023-01-15T18:13:48;22.40;36.60
72576;DHT22;60613;48.658;2.328;2023-01-15T18:16:14;22.40;36.60
72576;DHT22;60613;48.658;2.328;2023-01-15T18:18:41;22.30;36.60
72576;DHT22;60613;48.658;2.328;2023-01-15T18:21:07;22.40;37.70
72576;DHT22;60613;48.658;2.328;2023-01-15T18:23:33;22.30;36.60
72576;DHT22;60613;48.658;2.328;2023-01-15T18:26:04;22.30;36.60
72576;DHT22;60613;48.658;2.328;2023-01-15T18:28:35;22.30;36.60
72576;DHT22;60613;48.658;2.328;2023-01-15T18:31:01;22.30;36.60
72576;DHT22;60613;48.658;2.328;2023-01-15T18:33:27;22.30;36.60
72576;DHT22;60613;48.658;2.328;2023-01-15T18:36:08;22.30;36.50
72576;DHT22;60613;48.658;2.328;2023-01-15T18:38:38;22.30;36.50
72576;DHT22;60613;48.658;2.328;2023-01-15T18:41:23;22.30;36.60
72576;DHT22;60613;48.658;2.328;2023-01-15T18:44:15;22.30;36.60
72576;DHT22;60613;48.658;2.328;2023-01-15T18:47:05;22.30;36.60
72576;DHT22;60613;48.658;2.328;2023-01-15T18:49:33;22.30;36.70
72576;DHT22;60613;48.658;2.328;2023-01-15T18:51:59;22.30;36.70
72576;DHT22;60613;48.658;2.328;2023-01-15T18:54:43;22.30;36.70
72576;DHT22;60613;48.658;2.328;2023-01-15T18:57:09;22.30;36.70
72576;DHT22;60613;48.658;2.328;2023-01-15T18:59:35;22.30;36.80
72576;DHT22;60613;48.658;2.328;2023-01-15T19:02:00;22.30;36.70
72576;DHT22;60613;48.658;2.328;2023-01-15T19:04:26;22.30;36.80
72576;DHT22;60613;48.658;2.328;2023-01-15T19:06:52;22.30;36.90
72576;DHT22;60613;48.658;2.328;2023-01-15T19:09:18;22.30;36.90
72576;DHT22;60613;48.658;2.328;2023-01-15T19:11:45;22.30;36.90
72576;DHT22;60613;48.658;2.328;2023-01-15T19:14:11;22.30;36.90
72576;DHT22;60613;48.658;2.328;2023-01-15T19:16:56;22.30;36.50
72576;DHT22;60613;48.658;2.328;2023-01-15T19:19:40;22.30;36.90
72576;DHT22;60613;48.658;2.328;2023-01-15T19:22:08;22.30;37.00
72576;DHT22;60613;48.658;2.328;2023-01-15T19:24:52;22.30;37.10
72576;DHT22;60613;48.658;2.328;2023-01-15T19:27:18;22.30;37.10
72576;DHT22;60613;48.658;2.328;2023-01-15T19:29:44;22.30;37.10
72576;DHT22;60613;48.658;2.328;2023-01-15T19:32:09;22.30;37.30
72576;DHT22;60613;48.658;2.328;2023-01-15T19:34:35;22.30;37.20
72576;DHT22;60613;48.658;2.328;2023-01-15T19:37:01;22.30;37.20
72576;DHT22;60613;48.658;2.328;2023-01-15T19:39:28;22.30;37.20
72576;DHT22;60613;48.658;2.328;2023-01-15T19:41:54;22.30;37.20
72576;DHT22;60613;48.658;2.328;2023-01-15T19:44:39;22.30;37.20
72576;DHT22;60613;48.658;2.328;2023-01-15T19:47:46;22.20;37.20
72576;DHT22;60613;48.658;2.328;2023-01-15T19:50:39;22.30;37.30
72576;DHT22;60613;48.658;2.328;2023-01-15T19:53:06;22.30;37.20
72576;DHT22;60613;48.658;2.328;2023-01-15T19:55:32;22.20;37.20
72576;DHT22;60613;48.658;2.328;2023-01-15T19:58:01;22.30;37.30
72576;DHT22;60613;48.658;2.328;2023-01-15T20:00:27;22.30;37.30
72576;DHT22;60613;48.658;2.328;2023-01-15T20:02:53;22.30;37.20
72576;DHT22;60613;48.658;2.328;2023-01-15T20:05:21;22.20;37.10
72576;DHT22;60613;48.658;2.328;2023-01-15T20:07:47;22.30;37.20
72576;DHT22;60613;48.658;2.328;2023-01-15T20:10:15;22.30;37.10
72576;DHT22;60613;48.658;2.328;2023-01-15T20:12:41;22.30;37.20
72576;DHT22;60613;48.658;2.328;2023-01-15T20:15:26;22.20;37.10
72576;DHT22;60613;48.658;2.328;2023-01-15T20:17:52;22.20;37.10
72576;DHT22;60613;48.658;2.328;2023-01-15T20:20:18;22.20;37.10
72576;DHT22;60613;48.658;2.328;2023-01-15T20:22:43;22.20;37.10
72576;DHT22;60613;48.658;2.328;2023-01-15T20:25:09;22.20;37.10
72576;DHT22;60613;48.658;2.328;2023-01-15T20:27:36;22.20;37.10
72576;DHT22;60613;48.658;2.328;2023-01-15T20:30:09;22.20;37.10
72576;DHT22;60613;48.658;2.328;2023-01-15T20:32:41;22.20;37.10
72576;DHT22;60613;48.658;2.328;2023-01-15T20:35:10;22.20;37.10
72576;DHT22;60613;48.658;2.328;2023-01-15T20:37:36;22.20;37.10
72576;DHT22;60613;48.658;2.328;2023-01-15T20:40:02;22.20;37.10
72576;DHT22;60613;48.658;2.328;2023-01-15T20:42:28;22.20;37.00
72576;DHT22;60613;48.658;2.328;2023-01-15T20:45:12;22.20;37.10
72576;DHT22;60613;48.658;2.328;2023-01-15T20:47:40;22.20;37.00
72576;DHT22;60613;48.658;2.328;2023-01-15T20:50:26;22.20;37.00
72576;DHT22;60613;48.658;2.328;2023-01-15T20:52:53;22.20;37.00
72576;DHT22;60613;48.658;2.328;2023-01-15T20:55:19;22.20;36.90
72576;DHT22;60613;48.658;2.328;2023-01-15T20:57:46;22.20;36.90
72576;DHT22;60613;48.658;2.328;2023-01-15T21:00:14;22.20;36.90
72576;DHT22;60613;48.658;2.328;2023-01-15T21:02:40;22.20;36.90
72576;DHT22;60613;48.658;2.328;2023-01-15T21:05:06;22.20;36.90
72576;DHT22;60613;48.658;2.328;2023-01-15T21:07:33;22.20;36.90
72576;DHT22;60613;48.658;2.328;2023-01-15T21:09:59;22.20;36.90
72576;DHT22;60613;48.658;2.328;2023-01-15T21:12:24;22.20;36.90
72576;DHT22;60613;48.658;2.328;2023-01-15T21:14:50;22.30;36.90
72576;DHT22;60613;48.658;2.328;2023-01-15T21:17:16;22.20;36.80
72576;DHT22;60613;48.658;2.328;2023-01-15T21:19:41;22.20;36.80
72576;DHT22;60613;48.658;2.328;2023-01-15T21:22:07;22.20;36.80
72576;DHT22;60613;48.658;2.328;2023-01-15T21:24:33;22.20;36.80
72576;DHT22;60613;48.658;2.328;2023-01-15T21:26:59;22.20;37.90
72576;DHT22;60613;48.658;2.328;2023-01-15T21:29:25;22.20;36.80
72576;DHT22;60613;48.658;2.328;2023-01-15T21:31:51;22.20;36.70
72576;DHT22;60613;48.658;2.328;2023-01-15T21:34:18;22.20;36.80
72576;DHT22;60613;48.658;2.328;2023-01-15T21:36:43;22.20;36.70
72576;DHT22;60613;48.658;2.328;2023-01-15T21:39:11;22.20;36.70
72576;DHT22;60613;48.658;2.328;2023-01-15T21:41:37;22.30;36.70
72576;DHT22;60613;48.658;2.328;2023-01-15T21:44:21;22.30;36.70
72576;DHT22;60613;48.658;2.328;2023-01-15T21:47:16;22.30;36.70
72576;DHT22;60613;48.658;2.328;2023-01-15T21:49:42;22.30;36.70
72576;DHT22;60613;48.658;2.328;2023-01-15T21:52:11;22.30;36.90
72576;DHT22;60613;48.658;2.328;2023-01-15T21:54:38;22.30;36.70
72576;DHT22;60613;48.658;2.328;2023-01-15T21:57:04;22.40;36.70
72576;DHT22;60613;48.658;2.328;2023-01-15T21:59:30;22.30;36.60
